createdAt,value
2022-12-03T00:00:12.405Z,101253.00
2022-12-03T00:02:41.683Z,101249.00
2022-12-03T00:05:10.161Z,101262.00
2022-12-03T00:07:37.928Z,101265.00
2022-12-03T00:10:09.551Z,101256.00
2022-12-03T00:12:37.515Z,101264.00
2022-12-03T00:15:07.401Z,101253.00
2022-12-03T00:17:35.221Z,101256.00
2022-12-03T00:20:03.142Z,101250.00
2022-12-03T00:22:30.716Z,101253.00
2022-12-03T00:24:58.528Z,101248.00
2022-12-03T00:27:27.727Z,101244.00
2022-12-03T00:29:55.533Z,101252.00
2022-12-03T00:32:23.129Z,101251.00
2022-12-03T00:34:51.260Z,101245.00
2022-12-03T00:37:19.261Z,101251.00
2022-12-03T00:39:47.029Z,101250.00
2022-12-03T00:42:14.769Z,101247.00
2022-12-03T00:44:43.201Z,101242.00
2022-12-03T00:47:11.140Z,101247.00
2022-12-03T00:49:39.034Z,101252.00
2022-12-03T00:52:06.995Z,101246.00
2022-12-03T00:54:34.921Z,101248.00
2022-12-03T00:57:03.003Z,101246.00
2022-12-03T00:59:30.917Z,101242.00
2022-12-03T01:01:58.814Z,101244.00
2022-12-03T01:04:26.792Z,101247.00
2022-12-03T01:06:54.624Z,101243.00
2022-12-03T01:09:22.658Z,101240.00
2022-12-03T01:11:50.474Z,101246.00
2022-12-03T01:14:19.593Z,101249.00
2022-12-03T01:16:48.245Z,101243.00
2022-12-03T01:19:16.564Z,101248.00
2022-12-03T01:21:49.451Z,101251.00
2022-12-03T01:24:18.574Z,101256.00
2022-12-03T01:26:46.516Z,101250.00
2022-12-03T01:29:15.532Z,101250.00
2022-12-03T01:32:02.115Z,101255.00
2022-12-03T01:34:30.116Z,101252.00
2022-12-03T01:36:57.908Z,101255.00
2022-12-03T01:39:25.583Z,101252.00
2022-12-03T01:41:53.974Z,101244.00
2022-12-03T01:44:26.540Z,101246.00
2022-12-03T01:46:56.789Z,101246.00
2022-12-03T01:49:27.489Z,101239.00
2022-12-03T01:51:56.021Z,101249.00
2022-12-03T01:54:37.384Z,101244.00
2022-12-03T01:57:06.114Z,101240.00
2022-12-03T01:59:38.458Z,101252.00
2022-12-03T02:02:22.797Z,101251.00
2022-12-03T02:04:52.378Z,101249.00
2022-12-03T02:07:21.996Z,101249.00
2022-12-03T02:09:49.897Z,101247.00
2022-12-03T02:12:22.894Z,101241.00
2022-12-03T02:14:51.025Z,101248.00
2022-12-03T02:17:19.123Z,101241.00
2022-12-03T02:19:47.596Z,101239.00
2022-12-03T02:22:37.860Z,101245.00
2022-12-03T02:25:26.667Z,101242.00
2022-12-03T02:27:55.902Z,101237.00
2022-12-03T02:30:25.167Z,101243.00
2022-12-03T02:32:54.105Z,101240.00
2022-12-03T02:35:24.831Z,101245.00
2022-12-03T02:38:01.624Z,101242.00
2022-12-03T02:40:32.406Z,101246.00
2022-12-03T02:43:02.371Z,101236.00
2022-12-03T02:45:33.112Z,101241.00
2022-12-03T02:48:21.557Z,101233.00
2022-12-03T02:51:09.686Z,101239.00
2022-12-03T02:53:42.578Z,101235.00
2022-12-03T02:56:14.350Z,101243.00
2022-12-03T02:58:43.492Z,101237.00
2022-12-03T03:01:12.146Z,101243.00
2022-12-03T03:03:40.156Z,101249.00
2022-12-03T03:06:08.926Z,101242.00
2022-12-03T03:08:38.325Z,101245.00
2022-12-03T03:11:06.283Z,101248.00
2022-12-03T03:13:34.858Z,101245.00
2022-12-03T03:16:07.228Z,101251.00
2022-12-03T03:18:35.891Z,101245.00
2022-12-03T03:21:04.629Z,101247.00
2022-12-03T03:23:32.535Z,101244.00
2022-12-03T03:26:03.779Z,101246.00
2022-12-03T03:28:31.904Z,101239.00
2022-12-03T03:31:01.982Z,101240.00
2022-12-03T03:33:31.237Z,101242.00
2022-12-03T03:36:00.827Z,101245.00
2022-12-03T03:38:29.562Z,101246.00
2022-12-03T03:40:58.183Z,101244.00
2022-12-03T03:43:26.220Z,101243.00
2022-12-03T03:45:55.141Z,101237.00
2022-12-03T03:48:23.427Z,101238.00
2022-12-03T03:50:51.891Z,101237.00
2022-12-03T03:53:20.837Z,101228.00
2022-12-03T03:55:48.766Z,101229.00
2022-12-03T03:58:17.513Z,101232.00
2022-12-03T04:00:46.223Z,101230.00
2022-12-03T04:03:14.501Z,101230.00
2022-12-03T04:05:42.625Z,101220.00
2022-12-03T04:08:10.556Z,101216.00
2022-12-03T04:10:57.074Z,101214.00
2022-12-03T04:13:24.939Z,101205.00
2022-12-03T04:15:52.835Z,101213.00
2022-12-03T04:18:39.082Z,101208.00
2022-12-03T04:21:25.695Z,101203.00
2022-12-03T04:23:53.418Z,101215.00
2022-12-03T04:26:40.003Z,101208.00
2022-12-03T04:29:07.962Z,101214.00
2022-12-03T04:31:54.593Z,101210.00
2022-12-03T04:34:41.258Z,101217.00
2022-12-03T04:37:09.347Z,101198.00
2022-12-03T04:39:37.600Z,101203.00
2022-12-03T04:42:06.490Z,101205.00
2022-12-03T04:44:37.311Z,101211.00
2022-12-03T04:47:11.581Z,101210.00
2022-12-03T04:49:42.118Z,101212.00
2022-12-03T04:52:11.130Z,101204.00
2022-12-03T04:54:39.384Z,101210.00
2022-12-03T04:57:08.525Z,101216.00
2022-12-03T04:59:37.223Z,101208.00
2022-12-03T05:02:06.126Z,101210.00
2022-12-03T05:04:34.381Z,101208.00
2022-12-03T05:07:02.264Z,101209.00
2022-12-03T05:09:30.208Z,101210.00
2022-12-03T05:11:58.150Z,101212.00
2022-12-03T05:14:25.897Z,101197.00
2022-12-03T05:16:53.764Z,101195.00
2022-12-03T05:19:21.630Z,101204.00
2022-12-03T05:21:49.301Z,101202.00
2022-12-03T05:24:16.959Z,101199.00
2022-12-03T05:26:44.833Z,101193.00
2022-12-03T05:29:12.559Z,101197.00
2022-12-03T05:31:40.330Z,101194.00
2022-12-03T05:34:08.135Z,101187.00
2022-12-03T05:36:35.869Z,101199.00
2022-12-03T05:39:03.679Z,101199.00
2022-12-03T05:41:49.882Z,101193.00
2022-12-03T05:44:20.577Z,101189.00
2022-12-03T05:46:48.768Z,101192.00
2022-12-03T05:49:16.538Z,101188.00
2022-12-03T05:51:44.304Z,101198.00
2022-12-03T05:54:12.183Z,101196.00
2022-12-03T05:56:39.958Z,101189.00
2022-12-03T05:59:07.669Z,101185.00
2022-12-03T06:01:35.485Z,101189.00
2022-12-03T06:04:03.326Z,101181.00
2022-12-03T06:06:31.304Z,101188.00
2022-12-03T06:08:59.223Z,101194.00
2022-12-03T06:11:30.123Z,101197.00
2022-12-03T06:13:58.015Z,101196.00
2022-12-03T06:16:25.744Z,101190.00
2022-12-03T06:18:53.511Z,101188.00
2022-12-03T06:21:21.515Z,101187.00
2022-12-03T06:23:49.398Z,101192.00
2022-12-03T06:26:17.340Z,101190.00
2022-12-03T06:28:46.661Z,101199.00
2022-12-03T06:31:15.204Z,101191.00
2022-12-03T06:33:43.081Z,101189.00
2022-12-03T06:36:10.987Z,101193.00
2022-12-03T06:38:38.919Z,101194.00
2022-12-03T06:41:07.014Z,101199.00
2022-12-03T06:43:34.777Z,101191.00
2022-12-03T06:46:03.014Z,101190.00
2022-12-03T06:48:30.840Z,101191.00
2022-12-03T06:50:58.635Z,101188.00
2022-12-03T06:53:26.490Z,101189.00
2022-12-03T06:55:54.334Z,101191.00
2022-12-03T06:58:22.516Z,101193.00
2022-12-03T07:00:50.407Z,101189.00
2022-12-03T07:03:18.331Z,101189.00
2022-12-03T07:05:46.204Z,101190.00
2022-12-03T07:08:14.277Z,101193.00
2022-12-03T07:10:42.078Z,101191.00
2022-12-03T07:13:09.784Z,101193.00
2022-12-03T07:15:37.452Z,101193.00
2022-12-03T07:18:05.585Z,101188.00
2022-12-03T07:20:33.377Z,101187.00
2022-12-03T07:23:01.203Z,101180.00
2022-12-03T07:25:29.298Z,101187.00
2022-12-03T07:27:57.239Z,101181.00
2022-12-03T07:30:25.935Z,101188.00
2022-12-03T07:32:54.470Z,101175.00
2022-12-03T07:35:22.647Z,101183.00
2022-12-03T07:37:50.625Z,101179.00
2022-12-03T07:40:18.603Z,101180.00
2022-12-03T07:42:46.463Z,101185.00
2022-12-03T07:45:14.530Z,101180.00
2022-12-03T07:47:42.383Z,101184.00
2022-12-03T07:50:11.835Z,101186.00
2022-12-03T07:52:40.056Z,101176.00
2022-12-03T07:55:08.397Z,101178.00
2022-12-03T07:57:36.254Z,101162.00
2022-12-03T08:00:06.225Z,101165.00
2022-12-03T08:02:34.102Z,101173.00
2022-12-03T08:05:02.088Z,101164.00
2022-12-03T08:07:30.031Z,101172.00
2022-12-03T08:09:58.270Z,101172.00
2022-12-03T08:12:40.354Z,101167.00
2022-12-03T08:15:18.677Z,101159.00
2022-12-03T08:17:48.464Z,101164.00
2022-12-03T08:20:18.920Z,101162.00
2022-12-03T08:22:48.783Z,101159.00
2022-12-03T08:25:27.838Z,101155.00
2022-12-03T08:28:01.221Z,101161.00
2022-12-03T08:30:30.610Z,101159.00
2022-12-03T08:32:59.122Z,101160.00
2022-12-03T08:35:29.944Z,101163.00
2022-12-03T08:38:10.397Z,101159.00
2022-12-03T08:40:43.082Z,101160.00
2022-12-03T08:43:22.312Z,101158.00
2022-12-03T08:45:51.290Z,101164.00
2022-12-03T08:48:51.487Z,101164.00
2022-12-03T08:51:20.755Z,101162.00
2022-12-03T08:54:01.867Z,101164.00
2022-12-03T08:56:32.241Z,101159.00
2022-12-03T08:59:19.929Z,101163.00
2022-12-03T09:01:48.299Z,101155.00
2022-12-03T09:04:20.936Z,101157.00
2022-12-03T09:06:48.772Z,101156.00
2022-12-03T09:09:17.122Z,101161.00
2022-12-03T09:11:45.198Z,101155.00
2022-12-03T09:14:18.348Z,101157.00
2022-12-03T09:16:47.000Z,101159.00
2022-12-03T09:19:14.933Z,101158.00
2022-12-03T09:21:42.765Z,101164.00
2022-12-03T09:24:10.543Z,101164.00
2022-12-03T09:26:38.414Z,101164.00
2022-12-03T09:29:11.686Z,101151.00
2022-12-03T09:31:40.210Z,101153.00
2022-12-03T09:34:08.110Z,101165.00
2022-12-03T09:36:36.059Z,101161.00
2022-12-03T09:39:05.028Z,101162.00
2022-12-03T09:41:32.930Z,101155.00
2022-12-03T09:44:05.436Z,101156.00
2022-12-03T09:46:35.524Z,101143.00
2022-12-03T09:49:04.418Z,101151.00
2022-12-03T09:51:34.894Z,101138.00
2022-12-03T09:54:06.655Z,101134.00
2022-12-03T09:56:37.776Z,101142.00
2022-12-03T09:59:14.915Z,101142.00
2022-12-03T10:01:43.716Z,101138.00
2022-12-03T10:04:12.064Z,101143.00
2022-12-03T10:06:45.540Z,101143.00
2022-12-03T10:09:17.480Z,101137.00
2022-12-03T10:11:45.856Z,101124.00
2022-12-03T10:14:15.528Z,101119.00
2022-12-03T10:16:43.614Z,101128.00
2022-12-03T10:19:25.824Z,101128.00
2022-12-03T10:21:53.793Z,101124.00
2022-12-03T10:24:23.135Z,101120.00
2022-12-03T10:26:53.289Z,101117.00
2022-12-03T10:29:32.871Z,101120.00
2022-12-03T10:32:10.250Z,101120.00
2022-12-03T10:34:40.382Z,101122.00
2022-12-03T10:37:18.147Z,101112.00
2022-12-03T10:40:01.954Z,101115.00
2022-12-03T10:42:32.178Z,101104.00
2022-12-03T10:45:15.710Z,101096.00
2022-12-03T10:47:45.136Z,101111.00
2022-12-03T10:50:20.331Z,101112.00
2022-12-03T10:52:48.464Z,101111.00
2022-12-03T10:55:17.184Z,101106.00
2022-12-03T10:57:46.370Z,101106.00
2022-12-03T11:00:19.344Z,101116.00
2022-12-03T11:02:56.084Z,101107.00
2022-12-03T11:05:27.742Z,101105.00
2022-12-03T11:07:56.083Z,101094.00
2022-12-03T11:10:24.253Z,101100.00
2022-12-03T11:13:30.962Z,101089.00
2022-12-03T11:15:59.574Z,101082.00
2022-12-03T11:18:39.983Z,101082.00
2022-12-03T11:21:10.355Z,101085.00
2022-12-03T11:23:47.411Z,101082.00
2022-12-03T11:26:30.501Z,101083.00
2022-12-03T11:28:59.158Z,101074.00
2022-12-03T11:31:46.928Z,101070.00
2022-12-03T11:34:20.946Z,101063.00
2022-12-03T11:37:10.606Z,101062.00
2022-12-03T11:39:53.446Z,101054.00
2022-12-03T11:42:27.131Z,101056.00
2022-12-03T11:45:04.038Z,101063.00
2022-12-03T11:47:42.563Z,101064.00
2022-12-03T11:50:33.644Z,101061.00
2022-12-03T11:53:27.081Z,101063.00
2022-12-03T11:56:11.029Z,101060.00
2022-12-03T11:58:41.937Z,101063.00
2022-12-03T12:01:10.398Z,101053.00
2022-12-03T12:03:44.629Z,101049.00
2022-12-03T12:06:13.759Z,101055.00
2022-12-03T12:08:52.124Z,101057.00
2022-12-03T12:11:34.906Z,101057.00
2022-12-03T12:14:04.651Z,101052.00
2022-12-03T12:16:50.367Z,101047.00
2022-12-03T12:19:34.820Z,101038.00
2022-12-03T12:22:29.703Z,101045.00
2022-12-03T12:25:23.599Z,101043.00
2022-12-03T12:27:53.977Z,101034.00
2022-12-03T12:30:23.660Z,101034.00
2022-12-03T12:33:10.962Z,101024.00
2022-12-03T12:35:38.985Z,101017.00
2022-12-03T12:38:11.483Z,101019.00
2022-12-03T12:40:45.761Z,101010.00
2022-12-03T12:43:26.653Z,101014.00
2022-12-03T12:45:57.071Z,101012.00
2022-12-03T12:48:35.948Z,101004.00
2022-12-03T12:51:30.064Z,101010.00
2022-12-03T12:53:58.756Z,101008.00
2022-12-03T12:56:26.810Z,101010.00
2022-12-03T12:58:55.476Z,101008.00
2022-12-03T13:01:30.574Z,101008.00
2022-12-03T13:03:59.687Z,101012.00
2022-12-03T13:06:29.545Z,101004.00
2022-12-03T13:08:58.658Z,101007.00
2022-12-03T13:11:34.709Z,101009.00
2022-12-03T13:14:22.651Z,101005.00
2022-12-03T13:16:51.974Z,101009.00
2022-12-03T13:19:31.052Z,101013.00
2022-12-03T13:22:03.634Z,101006.00
2022-12-03T13:24:45.323Z,101004.00
2022-12-03T13:27:21.882Z,101003.00
2022-12-03T13:30:16.644Z,101002.00
2022-12-03T13:32:44.720Z,100995.00
2022-12-03T13:35:36.309Z,100994.00
2022-12-03T13:38:10.191Z,101001.00
2022-12-03T13:40:38.389Z,100993.00
2022-12-03T13:43:12.763Z,100995.00
2022-12-03T13:45:45.047Z,100985.00
2022-12-03T13:48:35.048Z,100990.00
2022-12-03T13:51:27.993Z,100975.00
2022-12-03T13:53:56.124Z,100982.00
2022-12-03T13:56:31.079Z,100988.00
2022-12-03T13:59:00.704Z,100984.00
2022-12-03T14:01:28.852Z,100985.00
2022-12-03T14:03:57.353Z,100978.00
2022-12-03T14:06:25.538Z,100979.00
2022-12-03T14:08:53.367Z,100976.00
2022-12-03T14:11:39.429Z,100968.00
2022-12-03T14:14:07.300Z,100973.00
2022-12-03T14:16:35.133Z,100976.00
2022-12-03T14:19:03.271Z,100970.00
2022-12-03T14:21:31.115Z,100980.00
2022-12-03T14:23:58.954Z,100966.00
2022-12-03T14:26:27.040Z,100975.00
2022-12-03T14:28:55.054Z,100985.00
2022-12-03T14:31:22.985Z,100979.00
2022-12-03T14:33:51.256Z,100969.00
2022-12-03T14:36:21.597Z,100969.00
2022-12-03T14:38:49.461Z,100968.00
2022-12-03T14:41:35.598Z,100966.00
2022-12-03T14:44:03.466Z,100966.00
2022-12-03T14:46:33.864Z,100951.00
2022-12-03T14:49:01.687Z,100961.00
2022-12-03T14:51:29.656Z,100958.00
2022-12-03T14:53:57.494Z,100970.00
2022-12-03T14:56:25.430Z,100967.00
2022-12-03T14:58:53.251Z,100965.00
2022-12-03T15:01:21.131Z,100970.00
2022-12-03T15:03:49.127Z,100968.00
2022-12-03T15:06:17.054Z,100966.00
2022-12-03T15:08:45.212Z,100964.00
2022-12-03T15:11:13.007Z,100972.00
2022-12-03T15:13:40.875Z,100962.00
2022-12-03T15:16:08.991Z,100965.00
2022-12-03T15:18:36.949Z,100960.00
2022-12-03T15:21:04.745Z,100957.00
2022-12-03T15:23:37.399Z,100954.00
2022-12-03T15:26:06.061Z,100965.00
2022-12-03T15:28:34.180Z,100968.00
2022-12-03T15:31:02.342Z,100959.00
2022-12-03T15:33:30.318Z,100964.00
2022-12-03T15:35:58.311Z,100960.00
2022-12-03T15:38:26.195Z,100968.00
2022-12-03T15:40:54.034Z,100965.00
2022-12-03T15:43:21.926Z,100971.00
2022-12-03T15:45:49.773Z,100960.00
2022-12-03T15:48:17.707Z,100969.00
2022-12-03T15:50:45.980Z,100967.00
2022-12-03T15:53:13.884Z,100963.00
2022-12-03T15:55:41.772Z,100958.00
2022-12-03T15:58:09.407Z,100954.00
2022-12-03T16:00:37.182Z,100952.00
2022-12-03T16:03:05.039Z,100954.00
2022-12-03T16:05:32.790Z,100954.00
2022-12-03T16:08:00.705Z,100949.00
2022-12-03T16:10:28.690Z,100957.00
2022-12-03T16:12:56.714Z,100951.00
2022-12-03T16:15:27.252Z,100957.00
2022-12-03T16:17:55.550Z,100958.00
2022-12-03T16:20:23.399Z,100959.00
2022-12-03T16:22:52.233Z,100959.00
2022-12-03T16:25:20.073Z,100958.00
2022-12-03T16:27:47.776Z,100960.00
2022-12-03T16:30:15.831Z,100957.00
2022-12-03T16:32:43.940Z,100958.00
2022-12-03T16:35:11.880Z,100964.00
2022-12-03T16:37:39.789Z,100965.00
2022-12-03T16:40:08.513Z,100959.00
2022-12-03T16:42:37.645Z,100970.00
2022-12-03T16:45:09.172Z,100971.00
2022-12-03T16:47:37.115Z,100977.00
2022-12-03T16:50:11.692Z,100964.00
2022-12-03T16:52:43.902Z,100979.00
2022-12-03T16:55:11.844Z,100969.00
2022-12-03T16:57:39.727Z,100968.00
2022-12-03T17:00:08.530Z,100974.00
2022-12-03T17:02:36.470Z,100968.00
2022-12-03T17:05:04.535Z,100970.00
2022-12-03T17:07:32.327Z,100964.00
2022-12-03T17:10:00.278Z,100970.00
2022-12-03T17:12:42.171Z,100971.00
2022-12-03T17:15:16.050Z,100955.00
2022-12-03T17:17:44.104Z,100963.00
2022-12-03T17:20:13.474Z,100959.00
2022-12-03T17:22:41.858Z,100954.00
2022-12-03T17:25:10.637Z,100956.00
2022-12-03T17:27:44.845Z,100958.00
2022-12-03T17:30:14.064Z,100954.00
2022-12-03T17:32:42.092Z,100949.00
2022-12-03T17:35:11.115Z,100945.00
2022-12-03T17:37:40.626Z,100950.00
2022-12-03T17:40:10.347Z,100935.00
2022-12-03T17:42:38.224Z,100942.00
2022-12-03T17:45:08.012Z,100940.00
2022-12-03T17:47:36.368Z,100947.00
2022-12-03T17:50:04.458Z,100945.00
2022-12-03T17:52:32.729Z,100935.00
2022-12-03T17:55:26.176Z,100944.00
2022-12-03T17:57:48.653Z,100942.00
2022-12-03T18:00:16.580Z,100938.00
2022-12-03T18:02:44.465Z,100947.00
2022-12-03T18:05:13.965Z,100939.00
2022-12-03T18:07:42.022Z,100939.00
2022-12-03T18:10:10.509Z,100937.00
2022-12-03T18:12:38.505Z,100937.00
2022-12-03T18:15:06.779Z,100939.00
2022-12-03T18:17:34.563Z,100939.00
2022-12-03T18:20:02.473Z,100936.00
2022-12-03T18:22:30.453Z,100937.00
2022-12-03T18:24:58.373Z,100938.00
2022-12-03T18:27:26.229Z,100933.00
2022-12-03T18:29:54.233Z,100935.00
2022-12-03T18:32:30.178Z,100931.00
2022-12-03T18:34:58.610Z,100929.00
2022-12-03T18:37:30.707Z,100921.00
2022-12-03T18:39:59.384Z,100931.00
2022-12-03T18:42:27.795Z,100929.00
2022-12-03T18:44:57.097Z,100930.00
2022-12-03T18:47:29.528Z,100929.00
2022-12-03T18:49:58.184Z,100925.00
2022-12-03T18:52:26.259Z,100916.00
2022-12-03T18:54:55.456Z,100917.00
2022-12-03T18:57:23.374Z,100913.00
2022-12-03T18:59:52.097Z,100909.00
2022-12-03T19:02:54.148Z,100916.00
2022-12-03T19:05:12.263Z,100910.00
2022-12-03T19:07:40.111Z,100913.00
2022-12-03T19:10:09.274Z,100914.00
2022-12-03T19:12:37.972Z,100913.00
2022-12-03T19:15:06.874Z,100919.00
2022-12-03T19:17:34.633Z,100913.00
2022-12-03T19:20:04.438Z,100918.00
2022-12-03T19:22:32.265Z,100921.00
2022-12-03T19:25:00.279Z,100917.00
2022-12-03T19:27:31.725Z,100924.00
2022-12-03T19:29:59.806Z,100912.00
2022-12-03T19:32:27.595Z,100916.00
2022-12-03T19:34:55.248Z,100912.00
2022-12-03T19:37:23.002Z,100910.00
2022-12-03T19:39:54.539Z,100898.00
2022-12-03T19:42:22.434Z,100908.00
2022-12-03T19:44:50.291Z,100909.00
2022-12-03T19:47:18.169Z,100907.00
2022-12-03T19:49:45.996Z,100911.00
2022-12-03T19:52:13.715Z,100910.00
2022-12-03T19:54:41.415Z,100904.00
2022-12-03T19:57:09.279Z,100909.00
2022-12-03T19:59:37.104Z,100913.00
2022-12-03T20:02:05.074Z,100921.00
2022-12-03T20:04:33.015Z,100920.00
2022-12-03T20:07:00.892Z,100919.00
2022-12-03T20:09:28.950Z,100915.00
2022-12-03T20:11:56.931Z,100911.00
2022-12-03T20:14:25.226Z,100917.00
2022-12-03T20:16:53.271Z,100906.00
2022-12-03T20:19:21.085Z,100915.00
2022-12-03T20:21:48.944Z,100916.00
2022-12-03T20:24:18.367Z,100915.00
2022-12-03T20:26:46.743Z,100913.00
2022-12-03T20:29:14.698Z,100912.00
2022-12-03T20:31:42.581Z,100910.00
2022-12-03T20:34:11.483Z,100910.00
2022-12-03T20:36:40.177Z,100908.00
2022-12-03T20:39:08.589Z,100923.00
2022-12-03T20:41:37.491Z,100918.00
2022-12-03T20:44:07.781Z,100921.00
2022-12-03T20:46:36.378Z,100914.00
2022-12-03T20:49:04.902Z,100909.00
2022-12-03T20:51:33.451Z,100906.00
2022-12-03T20:54:02.663Z,100908.00
2022-12-03T20:56:39.608Z,100911.00
2022-12-03T20:59:10.645Z,100904.00
2022-12-03T21:01:39.170Z,100902.00
2022-12-03T21:04:07.966Z,100894.00
2022-12-03T21:06:37.183Z,100904.00
2022-12-03T21:09:07.014Z,100903.00
2022-12-03T21:11:36.128Z,100900.00
2022-12-03T21:14:04.695Z,100903.00
2022-12-03T21:19:24.078Z,100905.00
2022-12-03T21:21:51.856Z,100904.00
2022-12-03T21:24:19.637Z,100903.00
2022-12-03T21:26:47.846Z,100900.00
2022-12-03T21:29:16.319Z,100896.00
2022-12-03T21:31:44.355Z,100901.00
2022-12-03T21:34:12.350Z,100896.00
2022-12-03T21:36:40.362Z,100906.00
2022-12-03T21:39:08.720Z,100902.00
2022-12-03T21:41:36.514Z,100902.00
2022-12-03T21:44:04.968Z,100906.00
2022-12-03T21:47:09.949Z,100902.00
2022-12-03T21:49:20.646Z,100897.00
2022-12-03T21:51:48.850Z,100898.00
2022-12-03T21:54:16.969Z,100893.00
2022-12-03T21:56:44.866Z,100888.00
2022-12-03T21:59:12.686Z,100889.00
2022-12-03T22:01:45.543Z,100894.00
2022-12-03T22:04:14.932Z,100899.00
2022-12-03T22:06:43.117Z,100889.00
2022-12-03T22:09:10.995Z,100890.00
2022-12-03T22:11:39.006Z,100886.00
2022-12-03T22:14:08.398Z,100887.00
2022-12-03T22:16:36.492Z,100883.00
2022-12-03T22:19:04.721Z,100882.00
2022-12-03T22:21:32.585Z,100884.00
2022-12-03T22:24:00.358Z,100873.00
2022-12-03T22:26:28.292Z,100877.00
2022-12-03T22:28:56.094Z,100878.00
2022-12-03T22:31:24.079Z,100884.00
2022-12-03T22:33:51.901Z,100882.00
2022-12-03T22:36:21.753Z,100887.00
2022-12-03T22:38:50.874Z,100883.00
2022-12-03T22:41:19.602Z,100875.00
2022-12-03T22:43:48.347Z,100873.00
2022-12-03T22:46:16.797Z,100872.00
2022-12-03T22:48:48.405Z,100871.00
2022-12-03T22:51:21.803Z,100872.00
2022-12-03T22:53:56.492Z,100871.00
2022-12-03T22:56:25.139Z,100866.00
2022-12-03T22:58:53.040Z,100867.00
2022-12-03T23:01:32.685Z,100871.00
2022-12-03T23:04:00.733Z,100865.00
2022-12-03T23:06:29.976Z,100863.00
2022-12-03T23:08:58.655Z,100849.00
2022-12-03T23:11:27.317Z,100853.00
2022-12-03T23:13:55.377Z,100849.00
2022-12-03T23:16:26.481Z,100847.00
2022-12-03T23:18:54.549Z,100848.00
2022-12-03T23:21:29.983Z,100843.00
2022-12-03T23:23:59.367Z,100836.00
2022-12-03T23:26:27.584Z,100832.00
2022-12-03T23:28:55.547Z,100827.00
2022-12-03T23:31:29.814Z,100835.00
2022-12-03T23:33:58.791Z,100830.00
2022-12-03T23:36:28.395Z,100826.00
2022-12-03T23:38:56.262Z,100828.00
2022-12-03T23:41:25.113Z,100830.00
2022-12-03T23:43:53.074Z,100828.00
2022-12-03T23:46:26.283Z,100826.00
2022-12-03T23:48:54.234Z,100836.00
2022-12-03T23:51:24.599Z,100826.00
2022-12-03T23:53:53.376Z,100831.00
2022-12-03T23:56:29.828Z,100834.00
2022-12-03T23:58:58.570Z,100829.00
